sensor_id;sensor_type;location;lat;lon;timestamp;temperature;humidity
19728;DHT22;10015;52.530;13.390;2023-05-25T00:00:25;15.00;99.90
19728;DHT22;10015;52.530;13.390;2023-05-25T00:02:50;14.90;99.90
19728;DHT22;10015;52.530;13.390;2023-05-25T00:05:19;14.90;99.90
19728;DHT22;10015;52.530;13.390;2023-05-25T00:07:46;14.90;99.90
19728;DHT22;10015;52.530;13.390;2023-05-25T00:10:12;14.90;99.90
19728;DHT22;10015;52.530;13.390;2023-05-25T00:12:38;14.90;99.90
19728;DHT22;10015;52.530;13.390;2023-05-25T00:15:05;14.90;99.90
19728;DHT22;10015;52.530;13.390;2023-05-25T00:17:31;14.90;99.90
19728;DHT22;10015;52.530;13.390;2023-05-25T00:19:58;14.80;99.90
19728;DHT22;10015;52.530;13.390;2023-05-25T00:22:34;14.70;99.90
19728;DHT22;10015;52.530;13.390;2023-05-25T00:25:00;14.70;99.90
19728;DHT22;10015;52.530;13.390;2023-05-25T00:27:26;14.70;99.90
19728;DHT22;10015;52.530;13.390;2023-05-25T00:29:52;14.70;99.90
19728;DHT22;10015;52.530;13.390;2023-05-25T00:32:18;14.70;99.90
19728;DHT22;10015;52.530;13.390;2023-05-25T00:34:45;14.70;99.90
19728;DHT22;10015;52.530;13.390;2023-05-25T00:37:11;14.70;99.90
19728;DHT22;10015;52.530;13.390;2023-05-25T00:39:37;14.70;99.90
19728;DHT22;10015;52.530;13.390;2023-05-25T00:42:04;14.70;99.90
19728;DHT22;10015;52.530;13.390;2023-05-25T00:44:32;14.80;99.90
19728;DHT22;10015;52.530;13.390;2023-05-25T00:46:58;14.80;99.90
19728;DHT22;10015;52.530;13.390;2023-05-25T00:49:24;14.80;99.90
19728;DHT22;10015;52.530;13.390;2023-05-25T00:51:51;14.80;99.90
19728;DHT22;10015;52.530;13.390;2023-05-25T00:54:18;14.80;99.90
19728;DHT22;10015;52.530;13.390;2023-05-25T00:56:56;14.80;99.90
19728;DHT22;10015;52.530;13.390;2023-05-25T00:59:30;14.80;99.90
19728;DHT22;10015;52.530;13.390;2023-05-25T01:02:03;14.80;99.90
19728;DHT22;10015;52.530;13.390;2023-05-25T01:04:35;14.80;99.90
19728;DHT22;10015;52.530;13.390;2023-05-25T01:07:03;14.70;99.90
19728;DHT22;10015;52.530;13.390;2023-05-25T01:09:33;14.70;99.90
19728;DHT22;10015;52.530;13.390;2023-05-25T01:12:01;14.60;99.90
19728;DHT22;10015;52.530;13.390;2023-05-25T01:14:27;14.60;99.90
19728;DHT22;10015;52.530;13.390;2023-05-25T01:16:55;14.60;99.90
19728;DHT22;10015;52.530;13.390;2023-05-25T01:19:21;14.60;99.90
19728;DHT22;10015;52.530;13.390;2023-05-25T01:22:04;14.50;99.90
19728;DHT22;10015;52.530;13.390;2023-05-25T01:24:43;14.40;99.90
19728;DHT22;10015;52.530;13.390;2023-05-25T01:27:17;14.40;99.90
19728;DHT22;10015;52.530;13.390;2023-05-25T01:29:45;14.30;99.90
19728;DHT22;10015;52.530;13.390;2023-05-25T01:32:13;14.30;99.90
19728;DHT22;10015;52.530;13.390;2023-05-25T01:34:39;14.20;99.90
19728;DHT22;10015;52.530;13.390;2023-05-25T01:37:06;14.20;99.90
19728;DHT22;10015;52.530;13.390;2023-05-25T01:39:35;14.20;99.90
19728;DHT22;10015;52.530;13.390;2023-05-25T01:42:01;14.20;99.90
19728;DHT22;10015;52.530;13.390;2023-05-25T01:44:27;14.10;99.90
19728;DHT22;10015;52.530;13.390;2023-05-25T01:47:06;14.20;99.90
19728;DHT22;10015;52.530;13.390;2023-05-25T01:52:37;14.20;99.90
19728;DHT22;10015;52.530;13.390;2023-05-25T01:55:07;14.30;99.90
19728;DHT22;10015;52.530;13.390;2023-05-25T01:57:39;14.30;99.90
19728;DHT22;10015;52.530;13.390;2023-05-25T02:00:07;14.30;99.90
19728;DHT22;10015;52.530;13.390;2023-05-25T02:02:42;14.30;99.90
19728;DHT22;10015;52.530;13.390;2023-05-25T02:05:09;14.40;99.90
19728;DHT22;10015;52.530;13.390;2023-05-25T02:07:36;14.40;99.90
19728;DHT22;10015;52.530;13.390;2023-05-25T02:10:02;14.40;99.90
19728;DHT22;10015;52.530;13.390;2023-05-25T02:12:28;14.40;99.90
19728;DHT22;10015;52.530;13.390;2023-05-25T02:14:55;14.40;99.90
19728;DHT22;10015;52.530;13.390;2023-05-25T02:17:21;14.40;99.90
19728;DHT22;10015;52.530;13.390;2023-05-25T02:19:47;14.40;99.90
19728;DHT22;10015;52.530;13.390;2023-05-25T02:22:19;14.40;99.90
19728;DHT22;10015;52.530;13.390;2023-05-25T02:24:45;14.40;99.90
19728;DHT22;10015;52.530;13.390;2023-05-25T02:27:11;14.30;99.90
19728;DHT22;10015;52.530;13.390;2023-05-25T02:29:37;14.30;99.90
19728;DHT22;10015;52.530;13.390;2023-05-25T02:32:04;14.30;99.90
19728;DHT22;10015;52.530;13.390;2023-05-25T02:34:30;14.30;99.90
19728;DHT22;10015;52.530;13.390;2023-05-25T02:36:56;14.30;99.90
19728;DHT22;10015;52.530;13.390;2023-05-25T02:39:23;14.30;99.90
19728;DHT22;10015;52.530;13.390;2023-05-25T02:41:52;14.30;99.90
19728;DHT22;10015;52.530;13.390;2023-05-25T02:44:19;14.30;99.90
19728;DHT22;10015;52.530;13.390;2023-05-25T02:46:45;14.20;99.90
19728;DHT22;10015;52.530;13.390;2023-05-25T02:49:11;14.20;99.90
19728;DHT22;10015;52.530;13.390;2023-05-25T02:51:37;14.20;99.90
19728;DHT22;10015;52.530;13.390;2023-05-25T02:54:03;14.20;99.90
19728;DHT22;10015;52.530;13.390;2023-05-25T02:56:31;14.20;99.90
19728;DHT22;10015;52.530;13.390;2023-05-25T02:58:58;14.00;99.90
19728;DHT22;10015;52.530;13.390;2023-05-25T03:01:34;14.00;99.90
19728;DHT22;10015;52.530;13.390;2023-05-25T03:04:00;14.00;99.90
19728;DHT22;10015;52.530;13.390;2023-05-25T03:06:28;14.00;99.90
19728;DHT22;10015;52.530;13.390;2023-05-25T03:08:57;13.90;99.90
19728;DHT22;10015;52.530;13.390;2023-05-25T03:11:23;13.90;99.90
19728;DHT22;10015;52.530;13.390;2023-05-25T03:13:50;13.90;99.90
19728;DHT22;10015;52.530;13.390;2023-05-25T03:16:18;13.90;99.90
19728;DHT22;10015;52.530;13.390;2023-05-25T03:18:44;13.90;99.90
19728;DHT22;10015;52.530;13.390;2023-05-25T03:21:10;13.90;99.90
19728;DHT22;10015;52.530;13.390;2023-05-25T03:23:36;13.90;99.90
19728;DHT22;10015;52.530;13.390;2023-05-25T03:26:05;13.90;99.90
19728;DHT22;10015;52.530;13.390;2023-05-25T03:28:32;13.90;99.90
19728;DHT22;10015;52.530;13.390;2023-05-25T03:30:58;13.90;99.90
19728;DHT22;10015;52.530;13.390;2023-05-25T03:33:24;13.90;99.90
19728;DHT22;10015;52.530;13.390;2023-05-25T03:35:50;13.90;99.90
19728;DHT22;10015;52.530;13.390;2023-05-25T03:38:16;13.90;99.90
19728;DHT22;10015;52.530;13.390;2023-05-25T03:40:42;13.90;99.90
19728;DHT22;10015;52.530;13.390;2023-05-25T03:43:08;13.90;99.90
19728;DHT22;10015;52.530;13.390;2023-05-25T03:45:34;13.90;99.90
19728;DHT22;10015;52.530;13.390;2023-05-25T03:48:00;14.00;99.90
19728;DHT22;10015;52.530;13.390;2023-05-25T03:50:26;14.00;99.90
19728;DHT22;10015;52.530;13.390;2023-05-25T03:52:52;14.00;99.90
19728;DHT22;10015;52.530;13.390;2023-05-25T03:55:18;14.00;99.90
19728;DHT22;10015;52.530;13.390;2023-05-25T03:57:44;14.00;99.90
19728;DHT22;10015;52.530;13.390;2023-05-25T04:00:11;14.00;99.90
19728;DHT22;10015;52.530;13.390;2023-05-25T04:02:41;14.00;99.90
19728;DHT22;10015;52.530;13.390;2023-05-25T04:05:07;14.00;99.90
19728;DHT22;10015;52.530;13.390;2023-05-25T04:07:33;14.00;99.90
19728;DHT22;10015;52.530;13.390;2023-05-25T04:10:02;14.10;99.90
19728;DHT22;10015;52.530;13.390;2023-05-25T04:12:29;14.20;99.90
19728;DHT22;10015;52.530;13.390;2023-05-25T04:14:55;14.20;99.90
19728;DHT22;10015;52.530;13.390;2023-05-25T04:17:22;14.20;99.90
19728;DHT22;10015;52.530;13.390;2023-05-25T04:19:50;14.30;99.90
19728;DHT22;10015;52.530;13.390;2023-05-25T04:22:17;14.40;99.90
19728;DHT22;10015;52.530;13.390;2023-05-25T04:24:44;14.40;99.90
19728;DHT22;10015;52.530;13.390;2023-05-25T04:27:10;14.40;99.90
19728;DHT22;10015;52.530;13.390;2023-05-25T04:29:36;14.40;99.90
19728;DHT22;10015;52.530;13.390;2023-05-25T04:32:21;14.50;99.90
19728;DHT22;10015;52.530;13.390;2023-05-25T04:35:11;14.50;99.90
19728;DHT22;10015;52.530;13.390;2023-05-25T04:37:42;14.40;99.90
19728;DHT22;10015;52.530;13.390;2023-05-25T04:40:09;14.50;99.90
19728;DHT22;10015;52.530;13.390;2023-05-25T04:42:36;14.50;99.90
19728;DHT22;10015;52.530;13.390;2023-05-25T04:45:06;14.70;99.90
19728;DHT22;10015;52.530;13.390;2023-05-25T04:47:35;14.70;99.90
19728;DHT22;10015;52.530;13.390;2023-05-25T04:50:02;14.80;99.90
19728;DHT22;10015;52.530;13.390;2023-05-25T04:52:29;14.90;99.90
19728;DHT22;10015;52.530;13.390;2023-05-25T04:54:55;14.90;99.90
19728;DHT22;10015;52.530;13.390;2023-05-25T04:57:21;15.00;99.90
19728;DHT22;10015;52.530;13.390;2023-05-25T04:59:48;15.10;99.90
19728;DHT22;10015;52.530;13.390;2023-05-25T05:02:13;15.20;99.90
19728;DHT22;10015;52.530;13.390;2023-05-25T05:04:40;15.30;99.90
19728;DHT22;10015;52.530;13.390;2023-05-25T05:07:07;15.40;99.90
19728;DHT22;10015;52.530;13.390;2023-05-25T05:09:34;15.40;99.90
19728;DHT22;10015;52.530;13.390;2023-05-25T05:12:01;15.50;99.90
19728;DHT22;10015;52.530;13.390;2023-05-25T05:14:28;15.70;99.90
19728;DHT22;10015;52.530;13.390;2023-05-25T05:16:54;15.80;99.90
19728;DHT22;10015;52.530;13.390;2023-05-25T05:19:21;15.90;99.90
19728;DHT22;10015;52.530;13.390;2023-05-25T05:21:47;16.00;99.90
19728;DHT22;10015;52.530;13.390;2023-05-25T05:24:15;16.00;99.90
19728;DHT22;10015;52.530;13.390;2023-05-25T05:26:41;16.00;99.90
19728;DHT22;10015;52.530;13.390;2023-05-25T05:29:07;16.10;99.90
19728;DHT22;10015;52.530;13.390;2023-05-25T05:31:35;16.30;99.90
19728;DHT22;10015;52.530;13.390;2023-05-25T05:34:02;16.50;99.90
19728;DHT22;10015;52.530;13.390;2023-05-25T05:36:29;16.70;99.90
19728;DHT22;10015;52.530;13.390;2023-05-25T05:38:58;16.70;99.90
19728;DHT22;10015;52.530;13.390;2023-05-25T05:41:25;16.80;99.90
19728;DHT22;10015;52.530;13.390;2023-05-25T05:43:52;17.00;99.90
19728;DHT22;10015;52.530;13.390;2023-05-25T05:46:18;17.40;99.90
19728;DHT22;10015;52.530;13.390;2023-05-25T05:48:44;17.70;99.90
19728;DHT22;10015;52.530;13.390;2023-05-25T05:51:09;17.90;99.90
19728;DHT22;10015;52.530;13.390;2023-05-25T05:53:36;18.10;99.90
19728;DHT22;10015;52.530;13.390;2023-05-25T05:56:03;18.30;99.90
19728;DHT22;10015;52.530;13.390;2023-05-25T05:58:29;18.50;99.90
19728;DHT22;10015;52.530;13.390;2023-05-25T06:00:56;18.70;99.90
19728;DHT22;10015;52.530;13.390;2023-05-25T06:03:24;18.90;99.90
19728;DHT22;10015;52.530;13.390;2023-05-25T06:05:52;19.00;99.90
19728;DHT22;10015;52.530;13.390;2023-05-25T06:08:18;19.20;99.90
19728;DHT22;10015;52.530;13.390;2023-05-25T06:10:44;19.30;99.90
19728;DHT22;10015;52.530;13.390;2023-05-25T06:13:10;19.50;99.90
19728;DHT22;10015;52.530;13.390;2023-05-25T06:15:36;19.70;99.90
19728;DHT22;10015;52.530;13.390;2023-05-25T06:18:07;19.80;99.90
19728;DHT22;10015;52.530;13.390;2023-05-25T06:20:34;20.00;99.90
19728;DHT22;10015;52.530;13.390;2023-05-25T06:23:00;20.10;99.90
19728;DHT22;10015;52.530;13.390;2023-05-25T06:25:27;20.30;99.90
19728;DHT22;10015;52.530;13.390;2023-05-25T06:27:54;20.50;99.90
19728;DHT22;10015;52.530;13.390;2023-05-25T06:30:20;20.60;99.90
19728;DHT22;10015;52.530;13.390;2023-05-25T06:32:46;20.70;99.90
19728;DHT22;10015;52.530;13.390;2023-05-25T06:35:12;20.90;99.90
19728;DHT22;10015;52.530;13.390;2023-05-25T06:37:45;21.10;99.90
19728;DHT22;10015;52.530;13.390;2023-05-25T06:40:12;21.10;99.90
19728;DHT22;10015;52.530;13.390;2023-05-25T06:42:37;21.20;99.90
19728;DHT22;10015;52.530;13.390;2023-05-25T06:45:04;21.30;99.90
19728;DHT22;10015;52.530;13.390;2023-05-25T06:47:31;21.40;99.90
19728;DHT22;10015;52.530;13.390;2023-05-25T06:49:57;21.50;99.90
19728;DHT22;10015;52.530;13.390;2023-05-25T06:52:23;21.60;99.90
19728;DHT22;10015;52.530;13.390;2023-05-25T06:54:49;21.80;99.90
19728;DHT22;10015;52.530;13.390;2023-05-25T06:57:15;22.00;99.90
19728;DHT22;10015;52.530;13.390;2023-05-25T06:59:41;22.10;99.90
19728;DHT22;10015;52.530;13.390;2023-05-25T07:02:07;22.20;99.90
19728;DHT22;10015;52.530;13.390;2023-05-25T07:04:32;22.40;99.90
19728;DHT22;10015;52.530;13.390;2023-05-25T07:06:59;22.50;99.90
19728;DHT22;10015;52.530;13.390;2023-05-25T07:09:25;22.50;99.90
19728;DHT22;10015;52.530;13.390;2023-05-25T07:11:51;22.60;99.90
19728;DHT22;10015;52.530;13.390;2023-05-25T07:14:17;22.60;99.90
19728;DHT22;10015;52.530;13.390;2023-05-25T07:16:43;22.70;99.90
19728;DHT22;10015;52.530;13.390;2023-05-25T07:19:11;22.90;99.90
19728;DHT22;10015;52.530;13.390;2023-05-25T07:21:37;23.00;99.90
19728;DHT22;10015;52.530;13.390;2023-05-25T07:24:04;23.10;99.90
19728;DHT22;10015;52.530;13.390;2023-05-25T07:26:31;23.20;99.90
19728;DHT22;10015;52.530;13.390;2023-05-25T07:28:58;23.00;99.90
19728;DHT22;10015;52.530;13.390;2023-05-25T07:31:23;23.00;99.90
19728;DHT22;10015;52.530;13.390;2023-05-25T07:33:50;23.10;99.90
19728;DHT22;10015;52.530;13.390;2023-05-25T07:36:16;23.30;99.90
19728;DHT22;10015;52.530;13.390;2023-05-25T07:38:42;23.40;99.90
19728;DHT22;10015;52.530;13.390;2023-05-25T07:41:08;23.50;99.90
19728;DHT22;10015;52.530;13.390;2023-05-25T07:43:35;23.60;99.90
19728;DHT22;10015;52.530;13.390;2023-05-25T07:46:02;23.70;99.90
19728;DHT22;10015;52.530;13.390;2023-05-25T07:48:28;23.80;99.90
19728;DHT22;10015;52.530;13.390;2023-05-25T07:50:54;23.90;99.90
19728;DHT22;10015;52.530;13.390;2023-05-25T07:53:20;23.60;99.90
19728;DHT22;10015;52.530;13.390;2023-05-25T07:55:46;23.50;99.90
19728;DHT22;10015;52.530;13.390;2023-05-25T07:58:14;23.40;99.90
19728;DHT22;10015;52.530;13.390;2023-05-25T08:00:40;23.50;99.90
19728;DHT22;10015;52.530;13.390;2023-05-25T08:03:06;23.60;99.90
19728;DHT22;10015;52.530;13.390;2023-05-25T08:05:32;23.70;99.90
19728;DHT22;10015;52.530;13.390;2023-05-25T08:07:58;23.50;99.90
19728;DHT22;10015;52.530;13.390;2023-05-25T08:10:24;23.40;99.90
19728;DHT22;10015;52.530;13.390;2023-05-25T08:12:56;23.30;99.90
19728;DHT22;10015;52.530;13.390;2023-05-25T08:15:22;23.30;99.90
19728;DHT22;10015;52.530;13.390;2023-05-25T08:17:48;23.30;99.90
19728;DHT22;10015;52.530;13.390;2023-05-25T08:20:16;23.10;99.90
19728;DHT22;10015;52.530;13.390;2023-05-25T08:22:42;22.90;99.90
19728;DHT22;10015;52.530;13.390;2023-05-25T08:25:08;22.80;99.90
19728;DHT22;10015;52.530;13.390;2023-05-25T08:27:34;22.50;99.90
19728;DHT22;10015;52.530;13.390;2023-05-25T08:30:04;22.30;99.90
19728;DHT22;10015;52.530;13.390;2023-05-25T08:32:36;22.20;99.90
19728;DHT22;10015;52.530;13.390;2023-05-25T08:35:02;22.40;99.90
19728;DHT22;10015;52.530;13.390;2023-05-25T08:37:28;22.60;99.90
19728;DHT22;10015;52.530;13.390;2023-05-25T08:39:55;22.80;99.90
19728;DHT22;10015;52.530;13.390;2023-05-25T08:42:21;23.00;99.90
19728;DHT22;10015;52.530;13.390;2023-05-25T08:44:48;23.20;99.90
19728;DHT22;10015;52.530;13.390;2023-05-25T08:47:16;23.40;99.90
19728;DHT22;10015;52.530;13.390;2023-05-25T08:49:43;23.40;99.90
19728;DHT22;10015;52.530;13.390;2023-05-25T08:52:13;23.40;99.90
19728;DHT22;10015;52.530;13.390;2023-05-25T08:54:42;23.10;99.90
19728;DHT22;10015;52.530;13.390;2023-05-25T08:57:16;23.00;99.90
19728;DHT22;10015;52.530;13.390;2023-05-25T09:05:00;23.10;99.90
19728;DHT22;10015;52.530;13.390;2023-05-25T09:07:28;23.30;99.90
19728;DHT22;10015;52.530;13.390;2023-05-25T09:09:55;23.50;99.90
19728;DHT22;10015;52.530;13.390;2023-05-25T09:12:22;23.60;99.90
19728;DHT22;10015;52.530;13.390;2023-05-25T09:14:49;23.70;99.90
19728;DHT22;10015;52.530;13.390;2023-05-25T09:17:16;23.70;99.90
19728;DHT22;10015;52.530;13.390;2023-05-25T09:19:44;23.60;99.90
19728;DHT22;10015;52.530;13.390;2023-05-25T09:22:10;23.60;99.90
19728;DHT22;10015;52.530;13.390;2023-05-25T09:24:37;23.70;99.90
19728;DHT22;10015;52.530;13.390;2023-05-25T09:27:10;23.60;99.90
19728;DHT22;10015;52.530;13.390;2023-05-25T09:29:36;23.50;99.90
19728;DHT22;10015;52.530;13.390;2023-05-25T09:32:04;23.50;99.90
19728;DHT22;10015;52.530;13.390;2023-05-25T09:34:35;23.70;99.90
19728;DHT22;10015;52.530;13.390;2023-05-25T09:37:12;23.90;99.90
19728;DHT22;10015;52.530;13.390;2023-05-25T09:39:42;24.20;99.90
19728;DHT22;10015;52.530;13.390;2023-05-25T09:42:10;24.30;99.90
19728;DHT22;10015;52.530;13.390;2023-05-25T09:44:37;24.30;99.90
19728;DHT22;10015;52.530;13.390;2023-05-25T09:47:04;24.30;99.90
19728;DHT22;10015;52.530;13.390;2023-05-25T09:49:31;23.80;99.90
19728;DHT22;10015;52.530;13.390;2023-05-25T09:51:57;23.70;99.90
19728;DHT22;10015;52.530;13.390;2023-05-25T09:54:24;23.30;99.90
19728;DHT22;10015;52.530;13.390;2023-05-25T09:56:51;23.10;99.90
19728;DHT22;10015;52.530;13.390;2023-05-25T09:59:17;22.90;99.90
19728;DHT22;10015;52.530;13.390;2023-05-25T10:01:44;22.70;99.90
19728;DHT22;10015;52.530;13.390;2023-05-25T10:04:15;22.60;99.90
19728;DHT22;10015;52.530;13.390;2023-05-25T10:06:43;22.80;99.90
19728;DHT22;10015;52.530;13.390;2023-05-25T10:09:12;22.80;99.90
19728;DHT22;10015;52.530;13.390;2023-05-25T10:11:41;22.90;99.90
19728;DHT22;10015;52.530;13.390;2023-05-25T10:14:09;23.00;99.90
19728;DHT22;10015;52.530;13.390;2023-05-25T10:16:40;23.10;99.90
19728;DHT22;10015;52.530;13.390;2023-05-25T10:22:31;23.20;99.90
19728;DHT22;10015;52.530;13.390;2023-05-25T10:27:40;23.30;99.90
19728;DHT22;10015;52.530;13.390;2023-05-25T10:30:09;23.30;99.90
19728;DHT22;10015;52.530;13.390;2023-05-25T10:32:38;23.00;99.90
19728;DHT22;10015;52.530;13.390;2023-05-25T10:35:05;23.00;99.90
19728;DHT22;10015;52.530;13.390;2023-05-25T10:37:33;22.90;99.90
19728;DHT22;10015;52.530;13.390;2023-05-25T10:40:00;22.60;99.90
19728;DHT22;10015;52.530;13.390;2023-05-25T10:42:26;22.70;99.90
19728;DHT22;10015;52.530;13.390;2023-05-25T10:44:57;22.80;99.90
19728;DHT22;10015;52.530;13.390;2023-05-25T10:47:24;22.60;99.90
19728;DHT22;10015;52.530;13.390;2023-05-25T10:49:55;22.60;99.90
19728;DHT22;10015;52.530;13.390;2023-05-25T10:52:29;22.50;99.90
19728;DHT22;10015;52.530;13.390;2023-05-25T10:54:59;22.40;99.90
19728;DHT22;10015;52.530;13.390;2023-05-25T10:57:29;22.50;99.90
19728;DHT22;10015;52.530;13.390;2023-05-25T11:00:07;22.50;99.90
19728;DHT22;10015;52.530;13.390;2023-05-25T11:02:51;22.40;99.90
19728;DHT22;10015;52.530;13.390;2023-05-25T11:07:58;22.10;99.90
19728;DHT22;10015;52.530;13.390;2023-05-25T11:18:54;22.10;99.90
19728;DHT22;10015;52.530;13.390;2023-05-25T11:26:31;22.50;99.90
19728;DHT22;10015;52.530;13.390;2023-05-25T11:28:58;22.40;99.90
19728;DHT22;10015;52.530;13.390;2023-05-25T11:31:32;22.50;99.90
19728;DHT22;10015;52.530;13.390;2023-05-25T11:34:03;22.40;99.90
19728;DHT22;10015;52.530;13.390;2023-05-25T11:36:35;22.40;99.90
19728;DHT22;10015;52.530;13.390;2023-05-25T11:39:03;22.50;99.90
19728;DHT22;10015;52.530;13.390;2023-05-25T11:41:29;22.40;99.90
19728;DHT22;10015;52.530;13.390;2023-05-25T11:44:03;22.40;99.90
19728;DHT22;10015;52.530;13.390;2023-05-25T11:46:30;22.30;99.90
19728;DHT22;10015;52.530;13.390;2023-05-25T11:48:58;22.30;99.90
19728;DHT22;10015;52.530;13.390;2023-05-25T11:51:26;22.30;99.90
19728;DHT22;10015;52.530;13.390;2023-05-25T11:53:53;22.40;99.90
19728;DHT22;10015;52.530;13.390;2023-05-25T11:56:19;22.50;99.90
19728;DHT22;10015;52.530;13.390;2023-05-25T11:58:49;22.70;99.90
19728;DHT22;10015;52.530;13.390;2023-05-25T12:01:19;22.90;99.90
19728;DHT22;10015;52.530;13.390;2023-05-25T12:03:46;22.90;99.90
19728;DHT22;10015;52.530;13.390;2023-05-25T12:06:23;22.90;99.90
19728;DHT22;10015;52.530;13.390;2023-05-25T12:08:53;22.90;99.90
19728;DHT22;10015;52.530;13.390;2023-05-25T12:11:33;22.90;99.90
19728;DHT22;10015;52.530;13.390;2023-05-25T12:14:02;23.00;99.90
19728;DHT22;10015;52.530;13.390;2023-05-25T12:16:29;23.30;99.90
19728;DHT22;10015;52.530;13.390;2023-05-25T12:18:56;23.30;99.90
19728;DHT22;10015;52.530;13.390;2023-05-25T12:21:22;23.40;99.90
19728;DHT22;10015;52.530;13.390;2023-05-25T12:23:49;23.40;99.90
19728;DHT22;10015;52.530;13.390;2023-05-25T12:26:17;23.30;99.90
19728;DHT22;10015;52.530;13.390;2023-05-25T12:29:03;22.90;99.90
19728;DHT22;10015;52.530;13.390;2023-05-25T12:31:33;22.60;99.90
19728;DHT22;10015;52.530;13.390;2023-05-25T12:34:16;22.50;99.90
19728;DHT22;10015;52.530;13.390;2023-05-25T12:39:10;22.70;99.90
19728;DHT22;10015;52.530;13.390;2023-05-25T12:41:52;22.70;99.90
19728;DHT22;10015;52.530;13.390;2023-05-25T12:44:35;22.80;99.90
19728;DHT22;10015;52.530;13.390;2023-05-25T12:49:46;22.40;99.90
19728;DHT22;10015;52.530;13.390;2023-05-25T12:52:51;22.30;99.90
19728;DHT22;10015;52.530;13.390;2023-05-25T12:55:31;22.20;99.90
19728;DHT22;10015;52.530;13.390;2023-05-25T12:57:59;22.20;99.90
19728;DHT22;10015;52.530;13.390;2023-05-25T13:00:30;22.20;99.90
19728;DHT22;10015;52.530;13.390;2023-05-25T13:02:57;22.10;99.90
19728;DHT22;10015;52.530;13.390;2023-05-25T13:05:25;22.00;99.90
19728;DHT22;10015;52.530;13.390;2023-05-25T13:07:52;21.80;99.90
19728;DHT22;10015;52.530;13.390;2023-05-25T13:10:19;21.90;99.90
19728;DHT22;10015;52.530;13.390;2023-05-25T13:12:46;21.60;99.90
19728;DHT22;10015;52.530;13.390;2023-05-25T13:15:15;21.40;99.90
19728;DHT22;10015;52.530;13.390;2023-05-25T13:17:43;21.30;99.90
19728;DHT22;10015;52.530;13.390;2023-05-25T13:20:13;21.30;99.90
19728;DHT22;10015;52.530;13.390;2023-05-25T13:22:40;21.10;99.90
19728;DHT22;10015;52.530;13.390;2023-05-25T13:25:08;21.10;99.90
19728;DHT22;10015;52.530;13.390;2023-05-25T13:27:35;21.20;99.90
19728;DHT22;10015;52.530;13.390;2023-05-25T13:30:06;21.40;99.90
19728;DHT22;10015;52.530;13.390;2023-05-25T13:32:33;21.40;99.90
19728;DHT22;10015;52.530;13.390;2023-05-25T13:34:59;21.40;99.90
19728;DHT22;10015;52.530;13.390;2023-05-25T13:37:26;21.40;99.90
19728;DHT22;10015;52.530;13.390;2023-05-25T13:39:55;21.50;99.90
19728;DHT22;10015;52.530;13.390;2023-05-25T13:42:23;21.60;99.90
19728;DHT22;10015;52.530;13.390;2023-05-25T13:44:49;21.70;99.90
19728;DHT22;10015;52.530;13.390;2023-05-25T13:47:15;21.70;99.90
19728;DHT22;10015;52.530;13.390;2023-05-25T13:49:41;21.50;99.90
19728;DHT22;10015;52.530;13.390;2023-05-25T13:52:06;21.50;99.90
19728;DHT22;10015;52.530;13.390;2023-05-25T13:54:32;21.50;99.90
19728;DHT22;10015;52.530;13.390;2023-05-25T13:56:58;21.40;99.90
19728;DHT22;10015;52.530;13.390;2023-05-25T13:59:24;21.30;99.90
19728;DHT22;10015;52.530;13.390;2023-05-25T14:01:50;21.30;99.90
19728;DHT22;10015;52.530;13.390;2023-05-25T14:04:16;21.30;99.90
19728;DHT22;10015;52.530;13.390;2023-05-25T14:06:42;21.30;99.90
19728;DHT22;10015;52.530;13.390;2023-05-25T14:09:09;21.30;99.90
19728;DHT22;10015;52.530;13.390;2023-05-25T14:11:35;21.30;99.90
19728;DHT22;10015;52.530;13.390;2023-05-25T14:14:02;21.30;99.90
19728;DHT22;10015;52.530;13.390;2023-05-25T14:16:35;21.30;99.90
19728;DHT22;10015;52.530;13.390;2023-05-25T14:19:02;21.40;99.90
19728;DHT22;10015;52.530;13.390;2023-05-25T14:21:28;21.50;99.90
19728;DHT22;10015;52.530;13.390;2023-05-25T14:23:58;21.60;99.90
19728;DHT22;10015;52.530;13.390;2023-05-25T14:26:24;21.70;99.90
19728;DHT22;10015;52.530;13.390;2023-05-25T14:28:52;21.70;99.90
19728;DHT22;10015;52.530;13.390;2023-05-25T14:31:18;21.80;99.90
19728;DHT22;10015;52.530;13.390;2023-05-25T14:33:44;21.80;99.90
19728;DHT22;10015;52.530;13.390;2023-05-25T14:36:10;21.70;99.90
19728;DHT22;10015;52.530;13.390;2023-05-25T14:38:36;21.80;99.90
19728;DHT22;10015;52.530;13.390;2023-05-25T14:41:02;22.00;99.90
19728;DHT22;10015;52.530;13.390;2023-05-25T14:43:28;22.00;99.90
19728;DHT22;10015;52.530;13.390;2023-05-25T14:45:56;22.10;99.90
19728;DHT22;10015;52.530;13.390;2023-05-25T14:48:21;22.10;99.90
19728;DHT22;10015;52.530;13.390;2023-05-25T14:50:50;22.10;99.90
19728;DHT22;10015;52.530;13.390;2023-05-25T14:53:17;22.10;99.90
19728;DHT22;10015;52.530;13.390;2023-05-25T14:55:43;22.00;99.90
19728;DHT22;10015;52.530;13.390;2023-05-25T14:58:09;22.00;99.90
19728;DHT22;10015;52.530;13.390;2023-05-25T15:00:35;22.00;99.90
19728;DHT22;10015;52.530;13.390;2023-05-25T15:03:01;22.10;99.90
19728;DHT22;10015;52.530;13.390;2023-05-25T15:05:27;22.20;99.90
19728;DHT22;10015;52.530;13.390;2023-05-25T15:07:53;22.20;99.90
19728;DHT22;10015;52.530;13.390;2023-05-25T15:10:19;22.40;99.90
19728;DHT22;10015;52.530;13.390;2023-05-25T15:12:45;22.50;99.90
19728;DHT22;10015;52.530;13.390;2023-05-25T15:15:11;22.10;99.90
19728;DHT22;10015;52.530;13.390;2023-05-25T15:17:37;22.00;99.90
19728;DHT22;10015;52.530;13.390;2023-05-25T15:20:04;21.80;99.90
19728;DHT22;10015;52.530;13.390;2023-05-25T15:22:30;22.00;99.90
19728;DHT22;10015;52.530;13.390;2023-05-25T15:24:56;22.20;99.90
19728;DHT22;10015;52.530;13.390;2023-05-25T15:27:25;22.30;99.90
19728;DHT22;10015;52.530;13.390;2023-05-25T15:29:51;22.40;99.90
19728;DHT22;10015;52.530;13.390;2023-05-25T15:32:17;22.40;99.90
19728;DHT22;10015;52.530;13.390;2023-05-25T15:34:43;22.40;99.90
19728;DHT22;10015;52.530;13.390;2023-05-25T15:37:10;22.40;99.90
19728;DHT22;10015;52.530;13.390;2023-05-25T15:39:39;22.40;99.90
19728;DHT22;10015;52.530;13.390;2023-05-25T15:42:05;22.40;99.90
19728;DHT22;10015;52.530;13.390;2023-05-25T15:44:31;22.40;99.90
19728;DHT22;10015;52.530;13.390;2023-05-25T15:46:57;22.30;99.90
19728;DHT22;10015;52.530;13.390;2023-05-25T15:49:23;22.50;99.90
19728;DHT22;10015;52.530;13.390;2023-05-25T15:51:49;22.50;99.90
19728;DHT22;10015;52.530;13.390;2023-05-25T15:54:17;22.60;99.90